createdAt,value
2022-12-29T00:00:31.545Z,2.20
2022-12-29T00:02:59.957Z,2.20
2022-12-29T00:05:29.744Z,2.17
2022-12-29T00:07:58.065Z,2.00
2022-12-29T00:10:26.480Z,2.50
2022-12-29T00:13:12.243Z,2.30
2022-12-29T00:15:41.080Z,2.30
2022-12-29T00:18:10.451Z,2.50
2022-12-29T00:20:57.713Z,2.77
2022-12-29T00:23:43.478Z,2.03
2022-12-29T00:26:33.930Z,2.57
2022-12-29T00:29:19.873Z,2.30
2022-12-29T00:32:08.211Z,2.33
2022-12-29T00:34:55.411Z,2.50
2022-12-29T00:37:45.305Z,2.10
2022-12-29T00:40:32.965Z,2.00
2022-12-29T00:43:19.573Z,2.30
2022-12-29T00:45:48.206Z,2.40
2022-12-29T00:48:36.963Z,2.30
2022-12-29T00:51:04.790Z,3.03
2022-12-29T00:53:34.919Z,2.17
2022-12-29T00:56:03.434Z,2.40
2022-12-29T00:58:33.049Z,2.63
2022-12-29T01:01:06.179Z,2.60
2022-12-29T01:03:36.912Z,2.53
2022-12-29T01:06:06.904Z,2.40
2022-12-29T01:08:37.411Z,2.60
2022-12-29T01:11:07.265Z,1.70
2022-12-29T01:13:37.043Z,1.90
2022-12-29T01:16:07.819Z,1.90
2022-12-29T01:18:37.015Z,2.13
2022-12-29T01:21:08.228Z,1.77
2022-12-29T01:23:37.938Z,2.10
2022-12-29T01:26:12.157Z,2.07
2022-12-29T01:28:42.519Z,1.80
2022-12-29T01:31:12.270Z,1.90
2022-12-29T01:33:40.794Z,2.00
2022-12-29T01:36:12.084Z,1.70
2022-12-29T01:38:43.244Z,2.03
2022-12-29T01:41:14.639Z,1.43
2022-12-29T01:43:46.288Z,2.30
2022-12-29T01:46:25.449Z,1.77
2022-12-29T01:49:02.160Z,1.90
2022-12-29T01:51:34.048Z,1.90
2022-12-29T01:54:11.989Z,1.63
2022-12-29T01:56:40.708Z,2.23
2022-12-29T01:59:16.721Z,1.90
2022-12-29T02:01:47.310Z,1.90
2022-12-29T02:04:16.182Z,1.53
2022-12-29T02:06:53.537Z,2.00
2022-12-29T02:09:24.655Z,1.57
2022-12-29T02:11:54.112Z,1.70
2022-12-29T02:14:22.606Z,1.60
2022-12-29T02:17:09.156Z,1.90
2022-12-29T02:20:20.596Z,1.63
2022-12-29T02:23:06.517Z,1.30
2022-12-29T02:26:02.786Z,1.80
2022-12-29T02:29:21.455Z,1.60
2022-12-29T02:31:59.915Z,1.43
2022-12-29T02:34:42.791Z,1.63
2022-12-29T02:37:21.727Z,1.40
2022-12-29T02:39:58.676Z,1.60
2022-12-29T02:42:35.925Z,1.37
2022-12-29T02:45:10.240Z,1.23
2022-12-29T02:47:44.894Z,1.40
2022-12-29T02:50:19.932Z,1.50
2022-12-29T02:52:53.706Z,1.50
2022-12-29T02:55:21.279Z,1.10
2022-12-29T02:58:17.774Z,1.30
2022-12-29T03:01:03.772Z,1.10
2022-12-29T03:03:50.253Z,1.20
2022-12-29T03:06:37.939Z,1.10
2022-12-29T03:09:21.483Z,0.90
2022-12-29T03:12:09.790Z,0.97
2022-12-29T03:15:10.438Z,1.23
2022-12-29T03:17:50.947Z,1.10
2022-12-29T03:20:27.612Z,1.10
2022-12-29T03:23:02.686Z,1.47
2022-12-29T03:25:38.030Z,1.13
2022-12-29T03:28:14.279Z,1.33
2022-12-29T03:30:47.905Z,1.00
2022-12-29T03:33:24.302Z,1.23
2022-12-29T03:36:00.802Z,1.13
2022-12-29T03:38:38.273Z,1.30
2022-12-29T03:41:19.478Z,1.30
2022-12-29T03:43:48.354Z,1.20
2022-12-29T03:46:16.870Z,1.93
2022-12-29T03:48:45.434Z,1.27
2022-12-29T03:51:15.238Z,1.43
2022-12-29T03:53:43.658Z,1.37
2022-12-29T03:56:12.073Z,1.50
2022-12-29T03:58:40.489Z,1.30
2022-12-29T04:01:12.525Z,1.20
2022-12-29T04:03:41.288Z,1.20
2022-12-29T04:06:09.978Z,1.30
2022-12-29T04:08:49.138Z,1.40
2022-12-29T04:11:18.309Z,1.40
2022-12-29T04:13:47.290Z,1.30
2022-12-29T04:16:20.024Z,1.30
2022-12-29T04:18:49.009Z,1.47
2022-12-29T04:21:17.934Z,1.53
2022-12-29T04:23:48.217Z,1.37
2022-12-29T04:26:18.626Z,1.20
2022-12-29T04:28:55.668Z,1.27
2022-12-29T04:31:35.937Z,1.90
2022-12-29T04:34:04.432Z,1.50
2022-12-29T04:36:34.346Z,1.70
2022-12-29T04:39:06.198Z,1.50
2022-12-29T04:41:35.741Z,1.60
2022-12-29T04:44:04.555Z,1.90
2022-12-29T04:46:56.130Z,1.40
2022-12-29T04:49:37.488Z,1.57
2022-12-29T04:52:38.376Z,1.53
2022-12-29T04:55:10.473Z,1.53
2022-12-29T04:57:38.920Z,1.67
2022-12-29T05:00:10.974Z,1.30
2022-12-29T05:02:40.120Z,1.20
2022-12-29T05:05:09.894Z,1.30
2022-12-29T05:07:43.226Z,1.40
2022-12-29T05:10:13.238Z,1.53
2022-12-29T05:12:42.882Z,1.37
2022-12-29T05:15:13.052Z,1.73
2022-12-29T05:17:41.596Z,1.20
2022-12-29T05:20:11.766Z,1.20
2022-12-29T05:22:40.485Z,1.40
2022-12-29T05:25:10.622Z,1.30
2022-12-29T05:27:55.952Z,1.33
2022-12-29T05:30:41.639Z,1.43
2022-12-29T05:33:12.596Z,0.83
2022-12-29T05:35:41.712Z,1.40
2022-12-29T05:38:10.537Z,1.10
2022-12-29T05:40:39.949Z,1.30
2022-12-29T05:43:19.634Z,1.90
2022-12-29T05:46:08.055Z,1.10
2022-12-29T05:48:58.930Z,1.20
2022-12-29T05:51:34.745Z,1.43
2022-12-29T05:54:03.152Z,1.30
2022-12-29T05:56:31.593Z,1.30
2022-12-29T05:59:03.010Z,1.33
2022-12-29T06:01:32.001Z,1.40
2022-12-29T06:04:00.633Z,1.00
2022-12-29T06:06:29.139Z,1.30
2022-12-29T06:09:00.432Z,1.20
2022-12-29T06:11:28.874Z,1.43
2022-12-29T06:14:01.882Z,1.33
2022-12-29T06:16:30.397Z,1.20
2022-12-29T06:19:01.589Z,1.30
2022-12-29T06:21:30.091Z,1.63
2022-12-29T06:24:00.169Z,1.20
2022-12-29T06:26:28.689Z,1.20
2022-12-29T06:28:57.049Z,1.73
2022-12-29T06:31:26.843Z,1.37
2022-12-29T06:33:55.367Z,1.00
2022-12-29T06:36:23.816Z,1.50
2022-12-29T06:38:53.448Z,1.30
2022-12-29T06:41:25.660Z,1.50
2022-12-29T06:44:12.009Z,1.50
2022-12-29T06:46:56.643Z,1.47
2022-12-29T06:49:25.262Z,1.00
2022-12-29T06:51:53.696Z,1.37
2022-12-29T06:54:22.078Z,1.70
2022-12-29T06:56:50.460Z,1.30
2022-12-29T06:59:18.797Z,1.50
2022-12-29T07:01:47.268Z,1.50
2022-12-29T07:04:17.363Z,1.70
2022-12-29T07:06:45.816Z,1.60
2022-12-29T07:09:14.212Z,1.80
2022-12-29T07:11:42.608Z,1.90
2022-12-29T07:14:12.606Z,1.63
2022-12-29T07:16:41.344Z,1.70
2022-12-29T07:19:09.792Z,1.97
2022-12-29T07:21:47.113Z,2.07
2022-12-29T07:24:15.592Z,2.13
2022-12-29T07:26:44.065Z,1.93
2022-12-29T07:29:12.404Z,1.67
2022-12-29T07:31:40.890Z,2.33
2022-12-29T07:34:10.934Z,2.13
2022-12-29T07:36:40.758Z,1.87
2022-12-29T07:39:09.350Z,1.77
2022-12-29T07:41:37.743Z,1.77
2022-12-29T07:44:06.419Z,2.00
2022-12-29T07:46:54.969Z,1.80
2022-12-29T07:49:25.376Z,1.70
2022-12-29T07:51:55.181Z,1.57
2022-12-29T07:54:24.371Z,1.73
2022-12-29T07:56:52.966Z,1.63
2022-12-29T07:59:21.427Z,2.10
2022-12-29T08:01:50.308Z,1.73
2022-12-29T08:04:18.734Z,2.63
2022-12-29T08:06:47.519Z,1.93
2022-12-29T08:09:22.358Z,1.70
2022-12-29T08:11:51.300Z,2.10
2022-12-29T08:14:20.326Z,1.63
2022-12-29T08:16:49.066Z,2.70
2022-12-29T08:19:17.579Z,2.00
2022-12-29T08:21:45.936Z,2.07
2022-12-29T08:24:14.407Z,1.57
2022-12-29T08:26:44.159Z,2.40
2022-12-29T08:29:12.527Z,2.27
2022-12-29T08:31:41.048Z,1.90
2022-12-29T08:34:09.552Z,1.73
2022-12-29T08:36:37.961Z,2.10
2022-12-29T08:39:06.466Z,1.97
2022-12-29T08:41:34.932Z,2.43
2022-12-29T08:44:04.677Z,2.03
2022-12-29T08:46:33.324Z,2.83
2022-12-29T08:49:01.856Z,2.30
2022-12-29T08:51:30.250Z,2.60
2022-12-29T08:53:58.762Z,2.60
2022-12-29T08:56:27.807Z,2.60
2022-12-29T08:58:58.558Z,2.10
2022-12-29T09:01:28.618Z,3.20
2022-12-29T09:04:14.969Z,2.40
2022-12-29T09:06:44.880Z,3.00
2022-12-29T09:09:13.838Z,2.47
2022-12-29T09:11:42.306Z,2.50
2022-12-29T09:14:10.750Z,3.23
2022-12-29T09:17:01.661Z,2.60
2022-12-29T09:19:30.154Z,3.30
2022-12-29T09:21:58.546Z,2.70
2022-12-29T09:24:26.945Z,2.87
2022-12-29T09:26:55.404Z,2.40
2022-12-29T09:29:24.244Z,2.40
2022-12-29T09:31:54.041Z,3.23
2022-12-29T09:34:22.633Z,3.23
2022-12-29T09:36:51.006Z,3.43
2022-12-29T09:39:19.444Z,3.00
2022-12-29T09:41:55.287Z,3.47
2022-12-29T09:44:33.826Z,2.90
2022-12-29T09:47:03.940Z,3.60
2022-12-29T09:49:42.109Z,3.20
2022-12-29T09:52:17.220Z,3.50
2022-12-29T09:55:02.403Z,3.60
2022-12-29T09:57:39.174Z,3.20
2022-12-29T10:00:15.446Z,3.47
2022-12-29T10:02:49.024Z,3.57
2022-12-29T10:05:35.163Z,3.40
2022-12-29T10:08:19.099Z,3.30
2022-12-29T10:10:56.699Z,2.70
2022-12-29T10:13:38.985Z,2.63
2022-12-29T10:16:17.092Z,2.30
2022-12-29T10:19:11.535Z,2.00
2022-12-29T10:21:55.770Z,1.90
2022-12-29T10:24:25.071Z,1.50
2022-12-29T10:26:54.315Z,1.20
2022-12-29T10:29:26.630Z,1.63
2022-12-29T10:32:01.093Z,1.27
2022-12-29T10:34:38.746Z,1.23
2022-12-29T10:37:14.408Z,1.27
2022-12-29T10:39:50.443Z,1.07
2022-12-29T10:42:31.138Z,1.20
2022-12-29T10:45:01.398Z,1.13
2022-12-29T10:47:34.943Z,1.83
2022-12-29T10:50:06.508Z,1.30
2022-12-29T10:52:36.419Z,1.20
2022-12-29T10:55:10.701Z,1.60
2022-12-29T10:57:44.627Z,1.87
2022-12-29T11:00:17.453Z,2.40
2022-12-29T11:03:40.256Z,0.97
2022-12-29T11:06:13.355Z,1.20
2022-12-29T11:08:47.508Z,1.73
2022-12-29T11:11:27.202Z,1.27
2022-12-29T11:14:01.287Z,0.93
2022-12-29T11:16:32.896Z,1.70
2022-12-29T11:19:01.415Z,1.60
2022-12-29T11:21:40.679Z,1.20
2022-12-29T11:24:23.292Z,1.10
2022-12-29T11:26:58.209Z,1.37
2022-12-29T11:29:30.509Z,1.10
2022-12-29T11:32:01.085Z,1.20
2022-12-29T11:34:35.201Z,1.40
2022-12-29T11:37:11.778Z,0.87
2022-12-29T11:39:45.049Z,0.97
2022-12-29T11:42:18.041Z,1.33
2022-12-29T11:44:49.263Z,1.37
2022-12-29T11:47:28.865Z,1.50
2022-12-29T11:50:01.352Z,1.57
2022-12-29T11:52:36.120Z,1.40
2022-12-29T11:55:08.111Z,1.37
2022-12-29T11:57:37.683Z,1.10
2022-12-29T12:00:17.483Z,1.30
2022-12-29T12:02:54.370Z,0.90
2022-12-29T12:05:36.072Z,1.30
2022-12-29T12:08:19.072Z,1.53
2022-12-29T12:10:55.133Z,1.20
2022-12-29T12:13:32.576Z,1.47
2022-12-29T12:16:07.957Z,1.53
2022-12-29T12:18:44.112Z,1.50
2022-12-29T12:21:21.055Z,2.20
2022-12-29T12:24:21.428Z,1.30
2022-12-29T12:27:01.678Z,1.20
2022-12-29T12:29:40.401Z,0.90
2022-12-29T12:32:18.511Z,1.13
2022-12-29T12:34:49.249Z,1.33
2022-12-29T12:37:40.672Z,1.37
2022-12-29T12:40:42.134Z,0.90
2022-12-29T12:43:39.331Z,1.33
2022-12-29T12:46:22.762Z,1.13
2022-12-29T12:49:14.793Z,1.30
2022-12-29T12:52:04.874Z,1.10
2022-12-29T12:54:58.521Z,1.00
2022-12-29T12:57:42.902Z,0.80
2022-12-29T13:00:14.628Z,0.80
2022-12-29T13:03:00.376Z,1.40
2022-12-29T13:06:15.916Z,1.63
2022-12-29T13:09:15.562Z,1.73
2022-12-29T13:12:02.715Z,1.30
2022-12-29T13:14:46.802Z,2.40
2022-12-29T13:17:25.013Z,1.33
2022-12-29T13:20:03.795Z,1.60
2022-12-29T13:22:40.689Z,1.50
2022-12-29T13:25:30.188Z,1.90
2022-12-29T13:28:05.969Z,1.47
2022-12-29T13:30:42.867Z,1.43
2022-12-29T13:33:24.340Z,1.87
2022-12-29T13:36:02.462Z,1.20
2022-12-29T13:38:38.392Z,1.90
2022-12-29T13:41:11.633Z,1.90
2022-12-29T13:43:44.773Z,1.50
2022-12-29T13:46:19.488Z,1.53
2022-12-29T13:48:54.410Z,2.17
2022-12-29T13:51:28.182Z,1.60
2022-12-29T13:54:20.577Z,1.60
2022-12-29T13:56:54.958Z,1.50
2022-12-29T13:59:41.330Z,2.00
2022-12-29T14:02:23.778Z,2.40
2022-12-29T14:05:01.353Z,1.83
2022-12-29T14:07:30.633Z,2.20
2022-12-29T14:09:59.971Z,1.70
2022-12-29T14:12:34.557Z,2.10
2022-12-29T14:15:23.293Z,1.40
2022-12-29T14:18:27.824Z,1.50
2022-12-29T14:21:00.240Z,2.10
2022-12-29T14:23:38.937Z,2.27
2022-12-29T14:26:17.229Z,1.53
2022-12-29T14:28:47.338Z,1.50
2022-12-29T14:31:42.961Z,1.83
2022-12-29T14:34:31.435Z,1.77
2022-12-29T14:37:03.059Z,1.73
2022-12-29T14:39:40.011Z,1.83
2022-12-29T14:42:14.692Z,2.87
2022-12-29T14:44:51.603Z,2.33
2022-12-29T14:47:25.205Z,2.20
2022-12-29T14:49:56.041Z,3.33
2022-12-29T14:52:28.114Z,2.60
2022-12-29T14:55:01.365Z,3.33
2022-12-29T14:57:41.972Z,3.17
2022-12-29T15:00:20.948Z,3.50
2022-12-29T15:02:55.570Z,2.50
2022-12-29T15:05:36.279Z,2.50
2022-12-29T15:08:06.166Z,2.20
2022-12-29T15:10:42.973Z,1.80
2022-12-29T15:13:23.362Z,2.23
2022-12-29T15:15:52.008Z,1.73
2022-12-29T15:18:27.677Z,3.00
2022-12-29T15:21:00.222Z,3.17
2022-12-29T15:23:29.735Z,2.83
2022-12-29T15:26:00.720Z,2.17
2022-12-29T15:28:38.700Z,2.00
2022-12-29T15:31:13.927Z,2.27
2022-12-29T15:33:44.658Z,2.53
2022-12-29T15:36:20.042Z,3.17
2022-12-29T15:38:48.700Z,2.73
2022-12-29T15:41:29.161Z,2.07
2022-12-29T15:44:11.750Z,2.37
2022-12-29T15:46:40.801Z,2.50
2022-12-29T15:49:10.855Z,2.20
2022-12-29T15:51:41.915Z,1.97
2022-12-29T15:54:19.580Z,2.20
2022-12-29T15:56:50.875Z,3.30
2022-12-29T15:59:27.748Z,2.80
2022-12-29T16:01:58.002Z,2.03
2022-12-29T16:04:30.347Z,2.10
2022-12-29T16:07:03.193Z,2.17
2022-12-29T16:09:35.870Z,1.60
2022-12-29T16:12:09.066Z,2.27
2022-12-29T16:14:48.901Z,1.80
2022-12-29T16:17:22.885Z,1.50
2022-12-29T16:19:54.988Z,1.70
2022-12-29T16:22:33.780Z,1.37
2022-12-29T16:25:07.306Z,1.30
2022-12-29T16:27:40.164Z,0.93
2022-12-29T16:30:19.606Z,1.50
2022-12-29T16:32:49.895Z,1.73
2022-12-29T16:35:21.789Z,2.10
2022-12-29T16:38:13.149Z,1.57
2022-12-29T16:40:51.808Z,2.10
2022-12-29T16:43:26.211Z,1.83
2022-12-29T16:46:21.440Z,1.60
2022-12-29T16:48:53.957Z,1.37
2022-12-29T16:51:32.333Z,2.57
2022-12-29T16:54:03.155Z,3.00
2022-12-29T16:56:34.320Z,1.80
2022-12-29T16:59:07.935Z,1.70
2022-12-29T17:01:40.181Z,1.60
2022-12-29T17:04:12.138Z,1.73
2022-12-29T17:06:41.491Z,1.50
2022-12-29T17:09:22.381Z,2.60
2022-12-29T17:12:01.709Z,2.20
2022-12-29T17:14:44.215Z,1.80
2022-12-29T17:17:18.521Z,1.83
2022-12-29T17:19:51.772Z,1.70
2022-12-29T17:22:25.186Z,1.30
2022-12-29T17:24:55.877Z,2.10
2022-12-29T17:27:29.600Z,2.03
2022-12-29T17:30:02.371Z,1.60
2022-12-29T17:32:31.304Z,1.67
2022-12-29T17:34:59.636Z,2.37
2022-12-29T17:37:36.173Z,1.70
2022-12-29T17:40:09.412Z,3.13
2022-12-29T17:42:44.389Z,1.80
2022-12-29T17:45:17.920Z,2.20
2022-12-29T17:47:46.585Z,2.10
2022-12-29T17:50:18.298Z,1.90
2022-12-29T17:52:52.543Z,1.77
2022-12-29T17:55:26.914Z,1.67
2022-12-29T17:57:57.215Z,2.30
2022-12-29T18:00:29.251Z,3.40
2022-12-29T18:02:58.598Z,2.50
2022-12-29T18:05:29.946Z,3.60
2022-12-29T18:08:01.477Z,4.63
2022-12-29T18:10:32.508Z,3.10
2022-12-29T18:13:02.049Z,3.60
2022-12-29T18:15:34.629Z,3.53
2022-12-29T18:18:10.591Z,5.37
2022-12-29T18:20:39.652Z,2.30
2022-12-29T18:23:10.545Z,2.13
2022-12-29T18:25:46.305Z,1.70
2022-12-29T18:28:14.645Z,2.13
2022-12-29T18:30:43.122Z,3.00
2022-12-29T18:33:21.356Z,2.53
2022-12-29T18:35:56.073Z,3.50
2022-12-29T18:38:24.513Z,3.47
2022-12-29T18:40:54.645Z,3.10
2022-12-29T18:43:23.763Z,3.83
2022-12-29T18:45:52.316Z,3.40
2022-12-29T18:48:22.520Z,3.50
2022-12-29T18:50:51.911Z,3.27
2022-12-29T18:53:23.224Z,2.63
2022-12-29T18:55:53.588Z,1.93
2022-12-29T18:58:22.024Z,5.97
2022-12-29T19:00:51.064Z,1.70
2022-12-29T19:03:20.280Z,3.00
2022-12-29T19:05:49.803Z,2.20
2022-12-29T19:08:18.197Z,3.00
2022-12-29T19:10:47.325Z,2.60
2022-12-29T19:13:20.444Z,2.53
2022-12-29T19:15:49.408Z,1.80
2022-12-29T19:21:10.220Z,1.70
2022-12-29T19:23:38.670Z,3.03
2022-12-29T19:26:07.437Z,4.00
2022-12-29T19:28:37.169Z,3.50
2022-12-29T19:31:05.669Z,3.03
2022-12-29T19:33:34.234Z,2.60
2022-12-29T19:36:03.856Z,1.87
2022-12-29T19:38:32.200Z,2.63
2022-12-29T19:41:00.658Z,1.90
2022-12-29T19:43:30.508Z,1.80
2022-12-29T19:46:00.418Z,2.70
2022-12-29T19:48:28.772Z,2.23
2022-12-29T19:51:06.367Z,2.50
2022-12-29T19:53:35.206Z,2.33
2022-12-29T19:56:05.799Z,3.00
2022-12-29T19:58:35.604Z,2.60
2022-12-29T20:01:12.743Z,2.90
2022-12-29T20:03:42.589Z,3.03
2022-12-29T20:06:12.653Z,2.63
2022-12-29T20:08:41.795Z,2.63
2022-12-29T20:11:13.207Z,2.70
2022-12-29T20:13:42.488Z,2.80
2022-12-29T20:16:16.018Z,2.87
2022-12-29T20:18:45.573Z,3.60
2022-12-29T20:21:17.522Z,3.63
2022-12-29T20:23:46.369Z,6.10
2022-12-29T20:26:16.624Z,2.40
2022-12-29T20:28:45.304Z,2.33
2022-12-29T20:31:21.943Z,2.40
2022-12-29T20:33:50.617Z,3.00
2022-12-29T20:36:22.350Z,2.90
2022-12-29T20:38:52.146Z,2.33
2022-12-29T20:41:21.178Z,3.20
2022-12-29T20:43:49.948Z,3.53
2022-12-29T20:46:21.832Z,2.00
2022-12-29T20:48:51.434Z,1.90
2022-12-29T20:51:21.964Z,2.50
2022-12-29T20:53:50.892Z,1.77
2022-12-29T20:56:22.112Z,2.80
2022-12-29T20:59:25.904Z,2.43
2022-12-29T21:01:42.801Z,2.20
2022-12-29T21:04:11.282Z,2.80
2022-12-29T21:06:39.660Z,3.10
2022-12-29T21:09:08.144Z,2.17
2022-12-29T21:11:36.799Z,2.73
2022-12-29T21:14:05.173Z,2.37
2022-12-29T21:16:33.525Z,3.30
2022-12-29T21:19:03.511Z,2.53
2022-12-29T21:21:31.869Z,2.60
2022-12-29T21:24:05.355Z,1.97
2022-12-29T21:26:35.032Z,2.80
2022-12-29T21:29:04.432Z,2.23
2022-12-29T21:31:35.210Z,2.90
2022-12-29T21:34:06.936Z,3.73
2022-12-29T21:36:35.763Z,4.00
2022-12-29T21:39:04.938Z,2.70
2022-12-29T21:41:33.832Z,2.60
2022-12-29T21:44:19.896Z,2.60
2022-12-29T21:46:48.857Z,2.57
2022-12-29T21:49:18.567Z,2.83
2022-12-29T21:51:54.071Z,2.60
2022-12-29T21:54:43.604Z,2.53
2022-12-29T21:57:33.512Z,2.10
2022-12-29T22:00:20.077Z,2.53
2022-12-29T22:03:06.044Z,2.93
2022-12-29T22:05:53.713Z,2.87
2022-12-29T22:08:39.582Z,3.50
2022-12-29T22:11:27.176Z,4.07
2022-12-29T22:13:58.065Z,3.23
2022-12-29T22:16:26.887Z,3.43
2022-12-29T22:18:55.440Z,3.13
2022-12-29T22:21:25.536Z,2.80
2022-12-29T22:23:53.990Z,3.93
2022-12-29T22:26:22.359Z,3.60
2022-12-29T22:28:52.064Z,3.00
2022-12-29T22:31:28.872Z,3.00
2022-12-29T22:33:59.223Z,3.57
2022-12-29T22:36:29.723Z,3.23
2022-12-29T22:38:58.323Z,3.70
2022-12-29T22:41:26.663Z,2.70
2022-12-29T22:43:56.049Z,2.70
2022-12-29T22:46:24.633Z,2.23
2022-12-29T22:48:53.155Z,2.57
2022-12-29T22:51:21.543Z,2.90
2022-12-29T22:53:52.051Z,2.20
2022-12-29T22:56:21.824Z,2.20
2022-12-29T22:58:51.614Z,2.40
2022-12-29T23:01:22.707Z,3.10
2022-12-29T23:03:51.531Z,2.47
2022-12-29T23:06:20.650Z,2.97
2022-12-29T23:08:49.085Z,2.23
2022-12-29T23:11:18.821Z,2.83
2022-12-29T23:13:47.384Z,2.40
2022-12-29T23:16:17.425Z,1.50
2022-12-29T23:18:48.067Z,2.00
2022-12-29T23:21:18.209Z,2.47
2022-12-29T23:23:57.262Z,1.67
2022-12-29T23:26:32.828Z,2.50
2022-12-29T23:29:03.607Z,2.40
2022-12-29T23:31:33.451Z,2.27
2022-12-29T23:34:03.788Z,2.40
2022-12-29T23:36:32.874Z,3.07
2022-12-29T23:39:01.601Z,2.20
2022-12-29T23:41:31.744Z,3.10
2022-12-29T23:44:00.089Z,2.10
2022-12-29T23:46:31.350Z,2.30
2022-12-29T23:49:00.258Z,3.57
2022-12-29T23:51:28.761Z,2.33
2022-12-29T23:53:57.191Z,1.97
2022-12-29T23:56:25.642Z,2.30
2022-12-29T23:58:55.508Z,2.30
